• Join FlightAware (Why Join?)
  • Login
  • US Flag 
12:59PM EDT


 

Airport Tracker/Info


-or-


 

Live Flight TrackerFlight Track Log ✈ OPT438 ✈ 25-Feb-2014 ✈ KISP - KPNE

Flight Track Log - Related Links

Times and Time Zones

All times are in EST time to prevent confusion due to time zone crossing. See the OPT438 flight status page for this flight to view local times or setup timezone preferences in your user account.

Time Position Orientation Groundspeed Altitude Reporting Facility
EST Latitude Longitude Course Direction KTS MPH feet Rate Location/Type
02:14PM 40.7325 -73.1167 174° South 260 299 5,000  Level Boston Center
02:15PM 40.7272 -73.0197 94° East 264 304 8,900 2,400 Climbing Boston Center
02:16PM 40.7081 -72.8761 100° East 345 397 10,000 1,080 Climbing Boston Center
02:17PM 40.6272 -72.8206 152° Southeast 329 379 11,100 960 Climbing Boston Center
02:18PM 40.5461 -72.7917 165° South 307 353 12,000 360 Climbing Boston Center
02:19PM 40.4783 -72.8519 214° Southwest 296 341 11,900  Descending Boston Center
02:20PM 40.4183 -72.9253 223° Southwest 296 341 12,000  Climbing Boston Center
02:21PM 40.3725 -72.9806 223° Southwest 297 342 12,000  Level New York Center
02:22PM 40.3189 -73.0467 223° Southwest 297 342 12,000  Level New York Center
02:23PM 40.2508 -73.1261 222° Southwest 305 351 12,000  Level New York Center
02:24PM 40.1994 -73.1922 225° Southwest 305 351 12,000  Level New York Center
02:25PM 40.1331 -73.2714 222° Southwest 305 351 12,000 -480 Level New York Center
02:26PM 40.0797 -73.3319 221° Southwest 299 344 11,100 -960 Descending New York Center
02:27PM 40.0239 -73.4028 224° Southwest 277 319 10,100 -1,020 Descending New York Center
02:28PM 39.9953 -73.4750 243° Southwest 258 297 9,100 -1,080 Descending New York Center
02:29PM 39.9703 -73.5581 249° West 253 291 8,000 -1,080 Descending New York Center
02:30PM 39.9539 -73.6386 255° West 241 277 7,000 -1,080 Descending New York Center
02:31PM 39.9706 -73.7178 285° West 223 257 5,900 -1,140 Descending New York Center
02:32PM 39.9894 -73.7944 288° West 223 257 4,800 -1,020 Descending New York Center
02:33PM 40.0103 -73.8794 288° West 224 258 3,900 -480 Descending New York Center
02:34PM 40.0350 -73.9619 291° West 237 273 3,900  Level New York Center
02:35PM 40.0581 -74.0361 292° West 237 273 3,900  Level New York Center
02:36PM 40.0811 -74.1078 293° West 237 273 3,900  Level New York Center
02:37PM 40.1039 -74.1822 292° West 231 266 3,900  Level New York Center
02:38PM 40.1306 -74.2675 292° West 231 266 3,900  Level New York Center
02:39PM 40.1553 -74.3422 293° West 231 266 3,900  Level New York Center
02:40PM 40.1781 -74.4194 291° West 231 266 3,900  Level New York Center
02:41PM 40.1989 -74.4883 292° West 231 266 3,900  Level New York Center
02:42PM 40.2131 -74.5681 283° West 231 266 4,000  Climbing New York Center
02:43PM 40.2186 -74.6472 275° West 226 260 4,000  Level New York Center
02:44PM 40.2036 -74.7278 256° West 220 253 4,000 -540 Level New York Center
02:45PM 40.1864 -74.8056 254° West 220 253 3,000 -600 Descending New York Center
02:46PM 40.1692 -74.8753 252° West 202 232 2,900 -660 Descending New York Center
02:47PM 40.1361 -74.9303 232° Southwest 196 226 1,800 -1,140 Descending New York Center
02:48PM 40.1167 -74.9667 235° Southwest 173 199 1,000 -1,200 Descending Philadelphia TRACON
02:51PM 40.0819 -75.0106 90° East  Level Estimated